Time;durP1;ratioP1;P1;durP2;ratioP2;P2;SDS_P1;SDS_P2;PMS_P1;PMS_P2;Temp;Humidity;BMP_temperature;BMP_pressure;BME280_temperature;BME280_humidity;BME280_pressure;Samples;Min_cycle;Max_cycle;Signal;HPM_P1;HPM_P2
2021/09/13 00:01:03;;;;;;;5.22;3.10;;;15.10;99.90;;;;;;5108797;28;20036;-39
2021/09/13 00:03:29;;;;;;;4.78;2.70;;;15.10;99.90;;;;;;5109651;28;20084;-40
2021/09/13 00:05:54;;;;;;;3.72;2.70;;;15.10;99.90;;;;;;5109757;28;20008;-38
2021/09/13 00:08:20;;;;;;;3.38;2.88;;;15.10;99.90;;;;;;5110870;28;20293;-38
2021/09/13 00:10:46;;;;;;;4.07;2.60;;;15.10;99.90;;;;;;5109114;28;20031;-39
2021/09/13 00:13:13;;;;;;;4.78;2.95;;;15.00;99.90;;;;;;5109366;28;20023;-40
2021/09/13 00:15:38;;;;;;;4.22;3.13;;;15.00;99.90;;;;;;5110135;28;20036;-39
2021/09/13 00:18:04;;;;;;;3.00;2.47;;;15.00;99.90;;;;;;5109771;28;20027;-40
2021/09/13 00:20:30;;;;;;;3.15;2.75;;;15.00;99.90;;;;;;5109725;28;20061;-38
2021/09/13 00:22:58;;;;;;;3.38;2.75;;;15.00;99.90;;;;;;5108773;28;20035;-39
2021/09/13 00:25:27;;;;;;;5.45;4.47;;;14.90;99.90;;;;;;5110342;28;20012;-40
2021/09/13 00:27:53;;;;;;;4.20;3.15;;;14.90;99.90;;;;;;5109316;28;20024;-40
2021/09/13 00:30:22;;;;;;;3.65;3.33;;;14.80;99.90;;;;;;5110199;28;20752;-36
2021/09/13 00:32:47;;;;;;;3.53;2.70;;;14.70;99.90;;;;;;5108974;28;20024;-35
2021/09/13 00:35:13;;;;;;;6.78;3.80;;;14.70;99.90;;;;;;5109760;28;20027;-38
2021/09/13 00:37:38;;;;;;;3.53;2.90;;;14.80;99.90;;;;;;5109299;28;20355;-37
2021/09/13 00:40:08;;;;;;;4.57;3.13;;;14.70;99.90;;;;;;5110480;28;20118;-39
2021/09/13 00:42:34;;;;;;;3.58;2.88;;;14.70;99.90;;;;;;5110203;28;20028;-37
2021/09/13 00:45:01;;;;;;;4.18;3.22;;;14.70;99.90;;;;;;5109111;28;20035;-38
2021/09/13 00:47:26;;;;;;;5.05;3.05;;;14.70;99.90;;;;;;5110026;28;20402;-41
2021/09/13 00:49:52;;;;;;;4.95;3.22;;;14.80;99.90;;;;;;5109925;28;20027;-39
2021/09/13 00:52:18;;;;;;;3.80;3.47;;;14.70;99.90;;;;;;5108613;28;20096;-39
2021/09/13 00:54:46;;;;;;;3.38;3.08;;;14.70;99.90;;;;;;5108988;28;20103;-40
2021/09/13 00:57:12;;;;;;;4.47;3.65;;;14.80;99.90;;;;;;5108123;28;20181;-37
2021/09/13 00:59:41;;;;;;;4.18;2.83;;;14.80;99.90;;;;;;5085388;28;20150;-40
2021/09/13 01:02:07;;;;;;;3.65;2.65;;;14.70;99.90;;;;;;5108386;28;20028;-39
2021/09/13 01:04:32;;;;;;;4.57;2.80;;;14.70;99.90;;;;;;5109680;28;20027;-39
2021/09/13 01:06:58;;;;;;;4.15;2.90;;;14.70;99.90;;;;;;5108074;28;20136;-41
2021/09/13 01:09:24;;;;;;;4.25;2.70;;;14.60;99.90;;;;;;5110526;28;20016;-39
2021/09/13 01:11:50;;;;;;;3.20;2.75;;;14.60;99.90;;;;;;5109242;28;20027;-40
2021/09/13 01:14:16;;;;;;;4.32;3.33;;;14.60;99.90;;;;;;5108414;28;20040;-38
2021/09/13 01:16:42;;;;;;;3.80;3.05;;;14.60;99.90;;;;;;5109558;28;20106;-40
2021/09/13 01:19:08;;;;;;;6.35;3.42;;;14.60;99.90;;;;;;5105913;28;21589;-37
2021/09/13 01:21:38;;;;;;;3.67;3.00;;;14.60;99.90;;;;;;5109611;28;20429;-37
2021/09/13 01:24:04;;;;;;;5.53;3.25;;;14.60;99.90;;;;;;5113849;28;20019;-38
2021/09/13 01:26:33;;;;;;;3.55;3.20;;;14.60;99.90;;;;;;5113012;28;20359;-39
2021/09/13 01:28:58;;;;;;;3.67;3.28;;;14.50;99.90;;;;;;5112315;28;20016;-39
2021/09/13 01:31:24;;;;;;;5.03;3.10;;;14.50;99.90;;;;;;5113670;28;20028;-39
2021/09/13 01:33:49;;;;;;;3.90;3.40;;;14.50;99.90;;;;;;5111925;28;20023;-37
2021/09/13 01:36:15;;;;;;;5.32;3.88;;;14.50;99.90;;;;;;5112578;28;20506;-38
2021/09/13 01:38:41;;;;;;;5.38;4.00;;;14.40;99.90;;;;;;5113094;28;20011;-38
2021/09/13 01:41:06;;;;;;;5.63;3.70;;;14.40;99.90;;;;;;5112164;28;20228;-37
2021/09/13 01:43:32;;;;;;;6.35;3.63;;;14.50;99.90;;;;;;5112890;28;20051;-40
2021/09/13 01:45:57;;;;;;;5.03;3.83;;;14.40;99.90;;;;;;5112780;28;20222;-40
2021/09/13 01:48:23;;;;;;;4.53;4.07;;;14.40;99.90;;;;;;5112434;28;20475;-37
2021/09/13 01:50:49;;;;;;;3.75;3.42;;;14.40;99.90;;;;;;5112493;28;20050;-38
2021/09/13 01:53:14;;;;;;;5.38;3.60;;;14.40;99.90;;;;;;5113252;28;20027;-36
2021/09/13 01:55:40;;;;;;;4.80;4.40;;;14.40;99.90;;;;;;5111001;28;20035;-39
2021/09/13 01:58:05;;;;;;;5.90;4.10;;;14.40;99.90;;;;;;5112594;28;20024;-39
2021/09/13 02:00:35;;;;;;;4.28;3.88;;;14.30;99.90;;;;;;5112453;28;20127;-37
2021/09/13 02:03:00;;;;;;;4.43;4.03;;;14.30;99.90;;;;;;5069743;28;20024;-36
2021/09/13 02:05:26;;;;;;;4.22;3.63;;;14.30;99.90;;;;;;5097952;28;20060;-40
2021/09/13 02:07:51;;;;;;;4.22;3.30;;;14.30;99.90;;;;;;5110796;28;20473;-37
2021/09/13 02:10:17;;;;;;;5.05;3.50;;;14.20;99.90;;;;;;5111462;28;20027;-38
2021/09/13 02:12:42;;;;;;;3.58;3.25;;;14.20;99.90;;;;;;5111874;28;20598;-37
2021/09/13 02:15:08;;;;;;;4.80;3.90;;;14.20;99.90;;;;;;5111804;28;20058;-38
2021/09/13 02:17:35;;;;;;;5.93;3.35;;;14.20;99.90;;;;;;5109586;28;20517;-37
2021/09/13 02:20:00;;;;;;;4.72;3.25;;;14.20;99.90;;;;;;5110979;28;20022;-38
2021/09/13 02:22:29;;;;;;;5.85;3.70;;;14.20;99.90;;;;;;5112617;28;20108;-38
2021/09/13 02:24:54;;;;;;;4.40;3.58;;;14.20;99.90;;;;;;5111798;28;20057;-39
2021/09/13 02:27:20;;;;;;;3.63;3.33;;;14.20;99.90;;;;;;5112223;28;20537;-37
2021/09/13 02:29:45;;;;;;;4.45;3.10;;;14.10;99.90;;;;;;5111129;28;20030;-39
2021/09/13 02:32:11;;;;;;;4.10;3.10;;;14.10;99.90;;;;;;5111939;28;20064;-39
2021/09/13 02:34:36;;;;;;;5.95;3.42;;;14.10;99.90;;;;;;5112498;28;20024;-37
2021/09/13 02:37:02;;;;;;;6.53;3.53;;;14.10;99.90;;;;;;5111393;28;20019;-37
2021/09/13 02:39:27;;;;;;;3.97;3.13;;;14.10;99.90;;;;;;5111958;28;20031;-34
2021/09/13 02:41:53;;;;;;;3.78;2.75;;;14.10;99.90;;;;;;5111114;28;20479;-38
2021/09/13 02:44:19;;;;;;;3.67;3.17;;;14.10;99.90;;;;;;5111153;28;20027;-37
2021/09/13 02:46:44;;;;;;;3.20;2.90;;;14.10;99.90;;;;;;5111924;28;20432;-39
2021/09/13 02:49:10;;;;;;;4.47;3.25;;;14.10;99.90;;;;;;5111981;28;20016;-37
2021/09/13 02:51:35;;;;;;;4.15;2.95;;;14.10;99.90;;;;;;5111116;28;20058;-37
2021/09/13 02:54:01;;;;;;;2.88;2.53;;;14.10;99.90;;;;;;5112048;28;20478;-37
2021/09/13 02:56:26;;;;;;;4.07;2.67;;;14.10;99.90;;;;;;5111282;28;20015;-38
2021/09/13 02:58:52;;;;;;;4.35;3.00;;;14.00;99.90;;;;;;5110517;28;20028;-38
2021/09/13 03:01:17;;;;;;;3.38;2.55;;;14.00;99.90;;;;;;5111880;28;20092;-36
2021/09/13 03:03:43;;;;;;;3.90;2.60;;;14.00;99.90;;;;;;5111291;28;20103;-39
2021/09/13 03:06:09;;;;;;;4.50;2.97;;;14.00;99.90;;;;;;5111207;28;20016;-39
2021/09/13 03:08:35;;;;;;;4.47;3.47;;;14.00;99.90;;;;;;5110849;28;20024;-39
2021/09/13 03:11:03;;;;;;;6.35;3.53;;;14.00;99.90;;;;;;5110364;28;20022;-34
2021/09/13 03:13:28;;;;;;;5.38;3.30;;;14.00;99.90;;;;;;5109189;28;20020;-40
2021/09/13 03:15:54;;;;;;;3.33;2.78;;;14.00;99.90;;;;;;5108930;28;20378;-39
2021/09/13 03:18:19;;;;;;;4.53;3.00;;;13.90;99.90;;;;;;5109463;28;20455;-39
2021/09/13 03:20:45;;;;;;;3.72;2.33;;;13.90;99.90;;;;;;5110429;28;20024;-39
2021/09/13 03:23:11;;;;;;;3.08;2.30;;;13.90;99.90;;;;;;5110154;28;20502;-33
2021/09/13 03:25:37;;;;;;;3.75;2.65;;;13.90;99.90;;;;;;5110064;28;20070;-39
2021/09/13 03:28:04;;;;;;;3.30;2.58;;;13.90;99.90;;;;;;5110722;28;20490;-37
2021/09/13 03:30:29;;;;;;;3.38;2.78;;;13.80;99.90;;;;;;5109977;28;20039;-38
2021/09/13 03:32:55;;;;;;;3.92;2.70;;;13.80;99.90;;;;;;5107921;28;20011;-38
2021/09/13 03:35:20;;;;;;;2.75;2.47;;;13.80;99.90;;;;;;5109858;28;20055;-36
2021/09/13 03:37:46;;;;;;;4.85;2.40;;;13.80;99.90;;;;;;5108772;28;20053;-37
2021/09/13 03:40:12;;;;;;;2.75;2.53;;;13.80;99.90;;;;;;5108791;28;20032;-39
2021/09/13 03:42:38;;;;;;;4.25;2.70;;;13.80;99.90;;;;;;5110466;28;20458;-38
2021/09/13 03:45:04;;;;;;;2.92;2.63;;;13.70;99.90;;;;;;5110143;28;20055;-40
2021/09/13 03:47:29;;;;;;;4.15;3.03;;;13.70;99.90;;;;;;5110590;28;20062;-40
2021/09/13 03:49:57;;;;;;;3.70;3.25;;;13.70;99.90;;;;;;5110690;28;20103;-40
2021/09/13 03:52:23;;;;;;;3.90;3.60;;;13.70;99.90;;;;;;5110127;28;20031;-39
2021/09/13 03:54:48;;;;;;;3.50;3.17;;;13.70;99.90;;;;;;5109793;28;20015;-40
2021/09/13 03:57:17;;;;;;;4.00;3.17;;;13.70;99.90;;;;;;5110636;28;20023;-38
2021/09/13 03:59:42;;;;;;;4.13;3.42;;;13.70;99.90;;;;;;5110200;28;20356;-40
2021/09/13 04:02:08;;;;;;;3.85;3.00;;;13.60;99.90;;;;;;5110390;28;20489;-36
2021/09/13 04:04:34;;;;;;;4.38;3.20;;;13.70;99.90;;;;;;5110627;28;20050;-40
2021/09/13 04:07:03;;;;;;;3.45;3.10;;;13.70;99.90;;;;;;5109984;28;20470;-39
2021/09/13 04:11:58;;;;;;;3.30;3.00;;;13.80;99.90;;;;;;5110165;28;20028;-39
2021/09/13 04:14:30;;;;;;;3.30;2.70;;;13.80;99.90;;;;;;5110180;28;20092;-37
2021/09/13 04:16:57;;;;;;;2.50;2.30;;;13.90;99.90;;;;;;5108929;28;20102;-38
2021/09/13 04:19:23;;;;;;;2.70;2.50;;;13.80;99.90;;;;;;5109924;28;20076;-40
2021/09/13 04:21:49;;;;;;;2.60;2.40;;;13.80;99.90;;;;;;5106823;28;20068;-40
2021/09/13 04:24:15;;;;;;;2.92;2.65;;;13.80;99.90;;;;;;5107451;28;20043;-40
2021/09/13 04:26:41;;;;;;;2.58;2.38;;;13.80;99.90;;;;;;5108673;28;20112;-37
2021/09/13 04:29:07;;;;;;;3.65;2.58;;;13.70;99.90;;;;;;5108327;28;20020;-38
2021/09/13 04:31:33;;;;;;;2.60;2.42;;;13.70;99.90;;;;;;5109957;28;20014;-38
2021/09/13 04:33:59;;;;;;;2.60;2.40;;;13.70;99.90;;;;;;5108115;28;20034;-36
2021/09/13 04:36:24;;;;;;;2.70;2.50;;;13.60;99.90;;;;;;5107848;28;20038;-39
2021/09/13 04:38:50;;;;;;;3.55;2.20;;;13.60;99.90;;;;;;5108306;28;20043;-37
2021/09/13 04:41:18;;;;;;;2.70;2.50;;;13.60;99.90;;;;;;5107940;28;20019;-39
2021/09/13 04:43:44;;;;;;;2.30;2.10;;;13.60;99.90;;;;;;5109002;28;20344;-39
2021/09/13 04:46:09;;;;;;;2.53;2.30;;;13.60;99.90;;;;;;5109645;28;20016;-37
2021/09/13 04:48:35;;;;;;;2.85;2.53;;;13.50;99.90;;;;;;5110412;28;20038;-40
2021/09/13 04:51:00;;;;;;;4.25;2.45;;;13.50;99.90;;;;;;5109058;28;20019;-37
2021/09/13 04:53:26;;;;;;;3.85;2.38;;;13.50;99.90;;;;;;5110091;28;20032;-39
2021/09/13 04:55:52;;;;;;;3.63;2.50;;;13.50;99.90;;;;;;5109846;28;20027;-36
2021/09/13 04:58:20;;;;;;;3.67;2.30;;;13.50;99.90;;;;;;5112782;28;20103;-37
2021/09/13 05:00:46;;;;;;;5.63;2.97;;;13.50;99.90;;;;;;5113435;28;20019;-39
2021/09/13 05:03:11;;;;;;;5.22;2.95;;;13.50;99.90;;;;;;5114068;28;20362;-37
2021/09/13 05:05:37;;;;;;;3.45;2.72;;;13.50;99.90;;;;;;5111637;28;20051;-38
2021/09/13 05:08:06;;;;;;;3.80;2.95;;;13.50;99.90;;;;;;5113710;28;20496;-38
2021/09/13 05:10:32;;;;;;;4.00;2.40;;;13.50;99.90;;;;;;5112815;28;20095;-39
2021/09/13 05:12:57;;;;;;;3.33;3.03;;;13.50;99.90;;;;;;5112945;28;20452;-35
2021/09/13 05:15:23;;;;;;;4.10;2.63;;;13.60;99.90;;;;;;5112865;28;20116;-40
2021/09/13 05:17:48;;;;;;;4.25;2.92;;;13.50;99.90;;;;;;5112754;28;20015;-38
2021/09/13 05:20:17;;;;;;;3.88;2.35;;;13.60;99.90;;;;;;5102471;28;20383;-38
2021/09/13 05:22:43;;;;;;;3.50;2.50;;;13.60;99.90;;;;;;5112343;28;20096;-38
2021/09/13 05:25:09;;;;;;;3.55;2.70;;;13.60;99.90;;;;;;5112948;28;20012;-38
2021/09/13 05:27:37;;;;;;;5.88;3.45;;;13.60;99.90;;;;;;5112288;28;20020;-34
2021/09/13 05:30:04;;;;;;;5.53;2.35;;;13.60;99.90;;;;;;5111728;28;20459;-40
2021/09/13 05:32:30;;;;;;;4.75;2.47;;;13.70;99.90;;;;;;5111200;28;20024;-38
2021/09/13 05:34:56;;;;;;;3.10;2.42;;;13.70;99.90;;;;;;5111255;28;20034;-39
2021/09/13 05:37:21;;;;;;;4.38;2.58;;;13.70;99.90;;;;;;5111718;28;20153;-47
2021/09/13 05:39:47;;;;;;;3.53;2.60;;;13.70;99.90;;;;;;5110029;28;20153;-35
2021/09/13 05:42:12;;;;;;;6.13;2.40;;;13.70;99.90;;;;;;5112480;28;20020;-39
2021/09/13 05:44:39;;;;;;;5.55;2.58;;;13.70;99.90;;;;;;5113096;28;20475;-34
2021/09/13 05:47:04;;;;;;;4.28;2.80;;;13.80;99.90;;;;;;5111624;28;20031;-34
2021/09/13 05:49:30;;;;;;;5.38;2.67;;;13.80;99.90;;;;;;5111972;28;20020;-39
2021/09/13 05:51:55;;;;;;;4.55;3.25;;;13.80;99.90;;;;;;5112333;28;20106;-35
2021/09/13 05:54:22;;;;;;;8.68;3.97;;;13.80;99.90;;;;;;5112283;28;20470;-39
2021/09/13 05:56:55;;;;;;;6.63;3.75;;;13.90;99.90;;;;;;5112621;28;20080;-31
2021/09/13 05:59:22;;;;;;;5.53;3.17;;;13.90;99.90;;;;;;5112758;28;20106;-35
2021/09/13 06:01:48;;;;;;;6.28;3.75;;;13.90;99.90;;;;;;5111881;28;20042;-36
2021/09/13 06:04:14;;;;;;;5.82;4.30;;;13.90;99.90;;;;;;5109219;28;20490;-40
2021/09/13 06:06:40;;;;;;;7.65;4.43;;;14.00;99.90;;;;;;5111869;28;20093;-40
2021/09/13 06:09:06;;;;;;;6.57;4.07;;;14.00;99.90;;;;;;5111440;28;20020;-39
2021/09/13 06:11:32;;;;;;;5.82;3.63;;;14.00;99.90;;;;;;5112037;28;20434;-41
2021/09/13 06:13:57;;;;;;;8.77;4.32;;;13.90;99.90;;;;;;5111209;28;20562;-37
2021/09/13 06:16:24;;;;;;;11.48;4.72;;;13.90;99.90;;;;;;5111227;28;20030;-39
2021/09/13 06:18:50;;;;;;;7.32;4.10;;;14.00;99.90;;;;;;5111964;28;20032;-40
2021/09/13 06:21:17;;;;;;;5.97;3.85;;;14.00;99.90;;;;;;5111919;28;20023;-37
2021/09/13 06:23:44;;;;;;;5.72;3.83;;;14.00;99.90;;;;;;5111706;28;20463;-38
2021/09/13 06:26:11;;;;;;;5.93;3.78;;;14.10;99.90;;;;;;5112061;28;20028;-39
2021/09/13 06:28:37;;;;;;;5.15;3.25;;;14.00;99.90;;;;;;5111819;28;20039;-38
2021/09/13 06:31:02;;;;;;;6.53;4.28;;;14.00;99.90;;;;;;5111883;28;20147;-40
2021/09/13 06:33:32;;;;;;;5.38;4.30;;;14.00;99.90;;;;;;5111445;28;20016;-39
2021/09/13 06:35:58;;;;;;;7.20;5.22;;;14.00;99.90;;;;;;5109833;28;20118;-39
2021/09/13 06:38:24;;;;;;;11.43;5.65;;;14.00;99.90;;;;;;5111069;28;20051;-39
2021/09/13 06:40:49;;;;;;;6.60;4.90;;;14.00;99.90;;;;;;5109240;28;20428;-33
2021/09/13 06:43:16;;;;;;;7.65;4.90;;;14.10;99.90;;;;;;5109699;28;20419;-37
2021/09/13 06:45:44;;;;;;;5.53;4.57;;;14.10;99.90;;;;;;5110174;28;20019;-39
2021/09/13 06:48:16;;;;;;;4.60;4.10;;;14.20;99.90;;;;;;5110547;28;20020;-42
2021/09/13 06:50:44;;;;;;;5.57;4.07;;;14.20;99.90;;;;;;5110500;28;20020;-38
2021/09/13 06:53:18;;;;;;;5.32;4.00;;;14.20;99.90;;;;;;5111757;28;20019;-43
2021/09/13 06:55:44;;;;;;;3.60;3.10;;;14.30;99.90;;;;;;5111220;28;20099;-39
2021/09/13 06:58:10;;;;;;;4.13;3.55;;;14.30;99.90;;;;;;5110423;28;20536;-42
2021/09/13 07:00:35;;;;;;;3.75;3.35;;;14.30;99.90;;;;;;5109581;28;20019;-40
2021/09/13 07:03:01;;;;;;;7.20;4.65;;;14.40;99.90;;;;;;5108901;28;20032;-43
2021/09/13 07:05:27;;;;;;;7.20;4.78;;;14.40;99.90;;;;;;5110108;28;20062;-43
2021/09/13 07:07:53;;;;;;;5.82;4.03;;;14.40;99.90;;;;;;5110675;28;20062;-41
2021/09/13 07:10:19;;;;;;;4.07;3.67;;;14.40;99.90;;;;;;5111629;28;20016;-41
2021/09/13 07:12:47;;;;;;;4.13;3.55;;;14.50;99.90;;;;;;5110026;28;20019;-39
2021/09/13 07:15:15;;;;;;;4.72;4.20;;;14.50;99.90;;;;;;5111666;28;20387;-40
2021/09/13 07:17:41;;;;;;;4.30;3.55;;;14.60;99.90;;;;;;5110529;28;20027;-38
2021/09/13 07:20:07;;;;;;;5.28;3.55;;;14.70;99.90;;;;;;5109655;28;20022;-42
2021/09/13 07:22:33;;;;;;;5.78;4.05;;;14.70;99.90;;;;;;5111281;28;20494;-43
2021/09/13 07:24:58;;;;;;;3.80;3.38;;;14.80;99.90;;;;;;5108892;28;20031;-39
2021/09/13 07:27:24;;;;;;;4.68;3.90;;;14.90;99.90;;;;;;5110891;28;20102;-42
2021/09/13 07:29:49;;;;;;;8.27;5.32;;;15.00;99.90;;;;;;5110701;28;20024;-42
2021/09/13 07:32:15;;;;;;;9.95;6.00;;;15.10;99.90;;;;;;5110227;28;20514;-41
2021/09/13 07:34:43;;;;;;;9.63;6.80;;;15.20;99.90;;;;;;5110706;28;20024;-40
2021/09/13 07:37:09;;;;;;;10.40;7.10;;;15.30;99.90;;;;;;5109100;28;20043;-37
2021/09/13 07:39:34;;;;;;;10.02;8.02;;;15.30;99.90;;;;;;5110364;28;20027;-42
2021/09/13 07:42:00;;;;;;;7.88;6.30;;;15.40;99.90;;;;;;5109859;28;20075;-42
2021/09/13 07:44:26;;;;;;;10.23;7.50;;;15.50;99.90;;;;;;5109924;28;20019;-37
2021/09/13 07:46:52;;;;;;;11.77;7.35;;;15.50;99.90;;;;;;5108481;28;20016;-42
2021/09/13 07:49:24;;;;;;;10.40;6.70;;;15.60;99.90;;;;;;5108810;28;20020;-42
2021/09/13 07:51:53;;;;;;;9.17;6.00;;;15.60;99.90;;;;;;5108329;28;20379;-40
2021/09/13 07:54:18;;;;;;;8.23;5.82;;;15.70;99.90;;;;;;5109148;28;20030;-42
2021/09/13 07:56:44;;;;;;;8.20;7.10;;;15.70;99.90;;;;;;5108045;28;20110;-43
2021/09/13 07:59:10;;;;;;;11.38;7.05;;;15.80;99.90;;;;;;5108395;28;20019;-43
2021/09/13 08:01:35;;;;;;;9.05;5.85;;;15.90;99.90;;;;;;5107978;28;20035;-42
2021/09/13 08:04:01;;;;;;;8.15;4.95;;;15.90;99.90;;;;;;5109509;28;20486;-44
2021/09/13 08:06:27;;;;;;;8.75;5.90;;;16.00;99.90;;;;;;5110652;28;20019;-39
2021/09/13 08:08:52;;;;;;;9.65;5.93;;;16.00;99.90;;;;;;5109023;28;20059;-43
2021/09/13 08:11:18;;;;;;;8.02;6.00;;;16.10;99.90;;;;;;5109890;28;20413;-42
2021/09/13 08:13:44;;;;;;;8.07;5.95;;;16.20;99.90;;;;;;5109773;28;20072;-43
2021/09/13 08:16:11;;;;;;;8.57;6.82;;;16.30;99.90;;;;;;5109408;28;20028;-42
2021/09/13 08:18:40;;;;;;;7.93;5.72;;;16.40;99.90;;;;;;5110227;28;20026;-42
2021/09/13 08:21:09;;;;;;;5.20;4.05;;;16.50;99.90;;;;;;5110068;28;20023;-42
2021/09/13 08:23:35;;;;;;;8.10;5.82;;;16.70;99.90;;;;;;5109367;28;20118;-43
2021/09/13 08:26:06;;;;;;;8.65;4.80;;;16.90;99.90;;;;;;5109576;28;20080;-40
2021/09/13 08:28:32;;;;;;;7.38;5.10;;;17.00;99.90;;;;;;5109131;28;20859;-40
2021/09/13 08:30:58;;;;;;;6.60;5.10;;;17.20;99.90;;;;;;5111631;28;20114;-43
2021/09/13 08:33:23;;;;;;;8.70;4.50;;;17.40;99.90;;;;;;5113740;28;20020;-40
2021/09/13 08:35:53;;;;;;;4.82;4.25;;;17.60;99.90;;;;;;5112364;28;20398;-43
2021/09/13 08:38:19;;;;;;;5.05;3.63;;;17.80;99.90;;;;;;5113601;28;20605;-40
2021/09/13 08:40:44;;;;;;;4.80;3.80;;;17.80;99.90;;;;;;5113780;28;20034;-43
2021/09/13 08:43:10;;;;;;;5.38;4.40;;;17.90;99.90;;;;;;5113106;28;20031;-37
2021/09/13 08:45:43;;;;;;;5.35;4.22;;;18.10;99.90;;;;;;5114028;28;20042;-44
2021/09/13 08:48:14;;;;;;;5.45;4.18;;;18.10;99.90;;;;;;5114082;28;20020;-40
2021/09/13 08:53:15;;;;;;;4.32;3.45;;;18.30;99.90;;;;;;5112885;28;20028;-43
2021/09/13 08:55:41;;;;;;;4.85;3.60;;;18.30;99.90;;;;;;5111959;28;20096;-39
2021/09/13 08:58:07;;;;;;;5.53;3.78;;;18.40;99.90;;;;;;5111436;28;20016;-42
2021/09/13 09:00:36;;;;;;;5.63;3.80;;;18.40;99.90;;;;;;5112530;28;20410;-41
2021/09/13 09:03:04;;;;;;;6.05;4.25;;;18.50;99.90;;;;;;5112442;28;20308;-37
2021/09/13 09:05:30;;;;;;;4.22;3.38;;;18.60;99.90;;;;;;5111658;28;20008;-40
2021/09/13 09:07:58;;;;;;;6.00;3.80;;;18.70;99.90;;;;;;5113523;28;20035;-39
2021/09/13 09:10:27;;;;;;;4.20;2.85;;;18.70;99.90;;;;;;5113045;28;20069;-40
2021/09/13 09:13:08;;;;;;;4.68;2.90;;;18.80;99.90;;;;;;5111422;28;20478;-38
2021/09/13 09:15:34;;;;;;;3.80;2.60;;;18.80;99.90;;;;;;5111324;28;20058;-39
2021/09/13 09:18:00;;;;;;;2.35;1.95;;;18.90;99.90;;;;;;5079972;28;20024;-35
2021/09/13 09:20:27;;;;;;;2.60;1.85;;;18.90;99.90;;;;;;5097723;28;20387;-41
2021/09/13 09:23:04;;;;;;;2.08;1.48;;;18.90;99.90;;;;;;5112964;28;21078;-33
2021/09/13 09:25:41;;;;;;;2.47;1.60;;;18.90;99.90;;;;;;5099496;28;20116;-35
2021/09/13 09:28:12;;;;;;;3.05;1.60;;;19.00;99.90;;;;;;5089509;28;20024;-38
2021/09/13 09:30:49;;;;;;;3.95;1.52;;;19.00;99.90;;;;;;5099450;28;20024;-34
2021/09/13 09:33:17;;;;;;;2.17;1.35;;;19.10;99.90;;;;;;5075685;28;20063;-38
2021/09/13 09:35:55;;;;;;;1.63;1.13;;;19.10;99.90;;;;;;5104070;28;20133;-38
2021/09/13 09:38:36;;;;;;;2.65;1.25;;;19.10;99.90;;;;;;5072311;28;20071;-36
2021/09/13 09:41:05;;;;;;;1.50;1.40;;;19.20;99.90;;;;;;5106358;28;20019;-36
2021/09/13 09:43:47;;;;;;;2.03;1.35;;;19.20;99.90;;;;;;5112811;28;20435;-39
2021/09/13 09:46:13;;;;;;;3.58;1.90;;;19.30;99.90;;;;;;5112675;28;20107;-40
2021/09/13 09:48:39;;;;;;;4.28;1.70;;;19.30;99.90;;;;;;5113281;28;20106;-41
2021/09/13 09:51:34;;;;;;;2.83;1.30;;;19.30;99.90;;;;;;5112544;28;20058;-41
2021/09/13 09:54:15;;;;;;;2.53;1.52;;;19.40;99.90;;;;;;5071448;28;20074;-41
2021/09/13 09:56:57;;;;;;;2.30;1.20;;;19.50;99.90;;;;;;5108495;28;20023;-40
2021/09/13 09:59:22;;;;;;;1.73;1.10;;;19.50;99.90;;;;;;5113532;28;20020;-42
2021/09/13 10:01:50;;;;;;;1.42;1.20;;;19.60;99.90;;;;;;5110482;28;20368;-43
2021/09/13 10:04:23;;;;;;;2.72;1.25;;;19.60;99.90;;;;;;5111647;28;20052;-36
2021/09/13 10:06:54;;;;;;;2.13;0.95;;;19.60;99.90;;;;;;5110593;28;20024;-41
2021/09/13 10:09:21;;;;;;;2.45;0.93;;;19.70;99.90;;;;;;5070498;28;20043;-40
2021/09/13 10:11:50;;;;;;;2.30;1.00;;;19.70;99.90;;;;;;5099532;28;20106;-40
2021/09/13 10:14:18;;;;;;;1.83;0.80;;;19.70;99.90;;;;;;5110988;28;20054;-39
2021/09/13 10:16:45;;;;;;;1.25;0.93;;;19.70;99.90;;;;;;5111879;28;20020;-38
2021/09/13 10:19:11;;;;;;;1.38;0.77;;;19.70;99.90;;;;;;5112541;28;20118;-39
2021/09/13 10:21:38;;;;;;;2.22;0.88;;;19.70;99.90;;;;;;5110945;28;20016;-41
2021/09/13 10:24:07;;;;;;;1.65;0.70;;;19.80;99.90;;;;;;5111189;28;20076;-40
2021/09/13 10:26:35;;;;;;;1.35;0.70;;;19.80;99.90;;;;;;5110101;28;20020;-40
2021/09/13 10:29:03;;;;;;;0.98;0.73;;;19.80;99.90;;;;;;5110858;28;20023;-41
2021/09/13 10:31:41;;;;;;;1.92;0.80;;;19.90;99.90;;;;;;5112377;28;20710;-42
2021/09/13 10:34:24;;;;;;;1.27;0.80;;;20.00;99.90;;;;;;5111621;28;20421;-39
2021/09/13 10:37:18;;;;;;;2.30;0.93;;;20.00;99.90;;;;;;5110666;28;20067;-40
2021/09/13 10:39:58;;;;;;;2.63;0.80;;;20.10;99.90;;;;;;5111697;28;20023;-42
2021/09/13 10:42:43;;;;;;;1.67;0.75;;;20.10;99.90;;;;;;5095233;28;20082;-40
2021/09/13 10:45:11;;;;;;;1.60;1.00;;;20.30;99.90;;;;;;5081614;28;20119;-39
2021/09/13 10:47:39;;;;;;;2.33;1.20;;;20.40;99.90;;;;;;5092884;28;20028;-37
2021/09/13 10:50:18;;;;;;;1.27;0.93;;;20.50;99.90;;;;;;5110754;28;20027;-41
2021/09/13 10:52:45;;;;;;;1.45;0.98;;;20.50;99.90;;;;;;5097675;28;20076;-40
2021/09/13 10:55:15;;;;;;;1.67;0.90;;;20.60;99.90;;;;;;5109875;28;20020;-41
2021/09/13 10:57:59;;;;;;;1.65;1.17;;;20.70;99.90;;;;;;5109961;28;20032;-37
2021/09/13 11:00:40;;;;;;;2.38;1.50;;;20.70;99.90;;;;;;5110513;28;20036;-39
2021/09/13 11:03:26;;;;;;;2.10;1.38;;;20.80;99.90;;;;;;5110242;28;20035;-41
2021/09/13 11:08:46;;;;;;;1.38;0.98;;;20.60;99.90;;;;;;5110486;28;20106;-42
2021/09/13 11:11:17;;;;;;;1.45;1.10;;;20.60;99.90;;;;;;5110957;28;20047;-40
2021/09/13 11:13:45;;;;;;;0.82;0.70;;;20.50;99.90;;;;;;5102159;28;20092;-39
2021/09/13 11:16:15;;;;;;;2.35;1.00;;;20.40;99.90;;;;;;5110083;28;20031;-39
2021/09/13 11:18:43;;;;;;;1.45;0.90;;;20.30;99.90;;;;;;5108227;28;20061;-38
2021/09/13 11:21:18;;;;;;;2.50;0.90;;;20.20;99.90;;;;;;5109153;28;20491;-40
2021/09/13 11:23:45;;;;;;;1.77;0.75;;;20.20;99.90;;;;;;5110102;28;20051;-41
2021/09/13 11:26:10;;;;;;;2.75;0.98;;;20.10;99.90;;;;;;5110954;28;20485;-37
2021/09/13 11:29:18;;;;;;;1.73;1.10;;;20.10;99.90;;;;;;5109280;28;20019;-38
2021/09/13 11:31:49;;;;;;;2.58;1.10;;;20.00;99.90;;;;;;5006911;28;20028;-38
2021/09/13 11:34:15;;;;;;;2.07;0.90;;;20.00;99.90;;;;;;5007549;28;20072;-37
2021/09/13 11:36:50;;;;;;;4.53;1.00;;;20.00;99.90;;;;;;5061510;28;20719;-38
2021/09/13 11:39:17;;;;;;;2.00;0.90;;;20.00;99.90;;;;;;5109588;28;20019;-40
2021/09/13 11:41:53;;;;;;;2.15;1.00;;;20.00;99.90;;;;;;5110769;28;20054;-41
2021/09/13 11:44:18;;;;;;;1.38;0.77;;;20.00;99.90;;;;;;5110931;28;20027;-40
2021/09/13 11:47:03;;;;;;;1.63;0.82;;;20.00;99.90;;;;;;5101188;28;21797;-39
2021/09/13 11:49:34;;;;;;;1.50;1.10;;;20.00;99.90;;;;;;5084167;28;20035;-42
2021/09/13 11:52:15;;;;;;;2.20;0.90;;;20.10;99.90;;;;;;5091615;28;20376;-42
2021/09/13 11:54:49;;;;;;;1.98;0.98;;;20.20;99.90;;;;;;5099103;28;20047;-39
2021/09/13 11:57:29;;;;;;;1.60;0.77;;;20.20;99.90;;;;;;5111424;28;20055;-41
2021/09/13 12:00:09;;;;;;;1.13;0.90;;;20.40;99.90;;;;;;5109398;28;20520;-41
2021/09/13 12:02:36;;;;;;;1.58;0.90;;;20.50;99.90;;;;;;5109919;28;20137;-39
2021/09/13 12:05:11;;;;;;;2.63;1.33;;;20.60;99.90;;;;;;5108057;28;20382;-39
2021/09/13 12:07:37;;;;;;;1.77;1.00;;;20.70;99.90;;;;;;5108321;28;20356;-38
2021/09/13 12:10:04;;;;;;;2.58;0.90;;;20.80;99.90;;;;;;5109975;28;20008;-41
2021/09/13 12:12:30;;;;;;;3.42;1.10;;;20.90;99.90;;;;;;5110328;28;20031;-39
2021/09/13 12:15:01;;;;;;;2.42;0.98;;;21.00;99.90;;;;;;5108952;28;20054;-40
2021/09/13 12:17:36;;;;;;;2.20;0.90;;;21.00;99.80;;;;;;5109398;28;20356;-40
2021/09/13 12:20:12;;;;;;;1.38;0.82;;;21.00;99.60;;;;;;5108688;28;20257;-38
2021/09/13 12:22:39;;;;;;;1.80;0.80;;;21.00;99.50;;;;;;5088574;28;20032;-41
2021/09/13 12:25:16;;;;;;;1.75;0.90;;;21.00;99.50;;;;;;5108337;28;20012;-37
2021/09/13 12:27:47;;;;;;;2.65;1.10;;;21.00;99.40;;;;;;5086397;28;20478;-45
2021/09/13 12:30:19;;;;;;;1.70;0.93;;;21.10;99.20;;;;;;5108027;28;20054;-42
2021/09/13 12:33:08;;;;;;;2.40;1.00;;;21.10;99.20;;;;;;5109027;28;20024;-43
2021/09/13 12:35:46;;;;;;;2.10;0.80;;;21.30;98.90;;;;;;5109707;28;20020;-42
2021/09/13 12:38:20;;;;;;;1.67;0.90;;;21.30;98.70;;;;;;5109990;28;20048;-38
2021/09/13 12:40:52;;;;;;;1.25;0.80;;;21.30;98.60;;;;;;5108704;28;20286;-41
2021/09/13 12:43:25;;;;;;;0.77;0.70;;;21.30;98.60;;;;;;5109260;28;20469;-41
2021/09/13 12:46:10;;;;;;;0.85;0.60;;;21.30;98.50;;;;;;5109500;28;20046;-40
2021/09/13 12:48:41;;;;;;;1.00;0.73;;;21.40;98.60;;;;;;5091089;28;20032;-38
2021/09/13 12:51:23;;;;;;;3.70;0.80;;;21.50;98.50;;;;;;5108435;28;20024;-39
2021/09/13 12:53:52;;;;;;;1.55;0.80;;;21.50;98.00;;;;;;5109332;28;20019;-40
2021/09/13 12:56:18;;;;;;;2.53;0.88;;;21.40;98.20;;;;;;5108144;28;20023;-41
2021/09/13 12:58:44;;;;;;;1.95;0.70;;;21.40;98.10;;;;;;5109675;28;20020;-38